createdAt,value
2017-08-17T00:01:23.446Z,27.83
2017-08-17T00:03:52.218Z,27.23
2017-08-17T00:06:21.290Z,28.03
2017-08-17T00:08:49.579Z,30.60
2017-08-17T00:11:17.912Z,27.87
2017-08-17T00:13:46.246Z,28.10
2017-08-17T00:16:15.805Z,26.80
2017-08-17T00:18:44.083Z,29.17
2017-08-17T00:21:12.432Z,29.20
2017-08-17T00:23:40.755Z,29.17
2017-08-17T00:26:09.048Z,30.83
2017-08-17T00:28:37.752Z,30.33
2017-08-17T00:31:06.808Z,30.73
2017-08-17T00:33:35.854Z,29.70
2017-08-17T00:36:04.278Z,29.67
2017-08-17T00:38:32.547Z,27.43
2017-08-17T00:41:01.816Z,26.70
2017-08-17T00:43:30.892Z,29.43
2017-08-17T00:45:59.911Z,28.90
2017-08-17T00:48:29.026Z,28.10
2017-08-17T00:50:58.103Z,27.87
2017-08-17T00:53:26.796Z,29.10
2017-08-17T00:55:55.121Z,26.37
2017-08-17T00:58:23.473Z,28.93
2017-08-17T01:00:52.578Z,29.73
2017-08-17T01:03:21.648Z,28.80
2017-08-17T01:05:50.329Z,28.43
2017-08-17T01:08:19.343Z,35.23
2017-08-17T01:10:47.683Z,34.73
2017-08-17T01:13:16.116Z,33.87
2017-08-17T01:15:44.471Z,39.60
2017-08-17T01:18:13.076Z,38.57
2017-08-17T01:20:41.410Z,36.67
2017-08-17T01:23:10.263Z,36.00
2017-08-17T01:25:39.640Z,36.97
2017-08-17T01:28:07.959Z,31.80
2017-08-17T01:30:36.639Z,29.00
2017-08-17T01:33:04.956Z,30.90
2017-08-17T01:35:34.765Z,36.97
2017-08-17T01:38:04.122Z,35.67
2017-08-17T01:40:32.443Z,31.53
2017-08-17T01:43:00.721Z,31.50
2017-08-17T01:45:29.626Z,31.53
2017-08-17T01:47:58.724Z,30.27
2017-08-17T01:50:28.106Z,29.77
2017-08-17T01:52:56.392Z,29.97
2017-08-17T01:55:24.974Z,28.93
2017-08-17T01:57:53.555Z,33.23
2017-08-17T02:00:21.891Z,32.53
2017-08-17T02:02:50.216Z,30.87
2017-08-17T02:05:18.549Z,34.00
2017-08-17T02:07:47.638Z,30.53
2017-08-17T02:10:16.277Z,31.90
2017-08-17T02:12:44.608Z,39.10
2017-08-17T02:15:12.882Z,40.97
2017-08-17T02:17:41.997Z,37.53
2017-08-17T02:20:11.067Z,36.87
2017-08-17T02:22:39.783Z,39.17
2017-08-17T02:25:09.034Z,33.53
2017-08-17T02:27:38.758Z,31.83
2017-08-17T02:30:08.000Z,28.83
2017-08-17T02:32:36.533Z,32.40
2017-08-17T02:35:05.163Z,31.17
2017-08-17T02:37:34.248Z,34.37
2017-08-17T02:40:02.888Z,31.13
2017-08-17T02:42:31.974Z,30.63
2017-08-17T02:45:01.256Z,26.07
2017-08-17T02:47:29.939Z,26.27
2017-08-17T02:49:58.215Z,28.23
2017-08-17T02:52:26.543Z,30.20
2017-08-17T02:54:54.882Z,31.30
2017-08-17T02:57:23.188Z,31.73
2017-08-17T02:59:51.868Z,31.07
2017-08-17T03:02:21.087Z,36.47
2017-08-17T03:04:49.414Z,36.40
2017-08-17T03:07:17.736Z,39.40
2017-08-17T03:09:46.044Z,40.03
2017-08-17T03:12:14.628Z,33.70
2017-08-17T03:14:42.938Z,34.50
2017-08-17T03:17:11.285Z,41.00
2017-08-17T03:19:40.372Z,43.87
2017-08-17T03:22:09.446Z,45.50
2017-08-17T03:24:38.424Z,48.30
2017-08-17T03:27:06.749Z,41.47
2017-08-17T03:29:35.812Z,47.60
2017-08-17T03:32:04.204Z,52.43
2017-08-17T03:34:32.512Z,49.80
2017-08-17T03:37:02.017Z,48.30
2017-08-17T03:39:30.286Z,46.17
2017-08-17T03:41:58.600Z,41.40
2017-08-17T03:44:28.009Z,37.00
2017-08-17T03:46:57.055Z,37.23
2017-08-17T03:49:25.391Z,31.73
2017-08-17T03:52:00.459Z,32.27
2017-08-17T03:54:28.775Z,29.83
2017-08-17T03:56:57.119Z,28.97
2017-08-17T03:59:25.453Z,32.20
2017-08-17T04:01:54.234Z,37.37
2017-08-17T04:04:22.551Z,31.03
2017-08-17T04:06:50.861Z,40.57
2017-08-17T04:09:19.177Z,37.30
2017-08-17T04:11:47.598Z,40.93
2017-08-17T04:14:16.973Z,37.07
2017-08-17T04:16:45.357Z,34.73
2017-08-17T04:19:14.733Z,32.53
2017-08-17T04:21:43.050Z,34.53
2017-08-17T04:24:11.311Z,31.80
2017-08-17T04:26:39.905Z,30.97
2017-08-17T04:29:08.186Z,33.30
2017-08-17T04:31:36.500Z,37.30
2017-08-17T04:34:04.797Z,38.47
2017-08-17T04:36:33.106Z,39.40
2017-08-17T04:39:01.720Z,39.23
2017-08-17T04:41:30.021Z,35.93
2017-08-17T04:43:59.157Z,36.70
2017-08-17T04:46:27.816Z,39.27
2017-08-17T04:48:57.022Z,31.93
2017-08-17T04:51:25.325Z,38.17
2017-08-17T04:53:53.669Z,36.70
2017-08-17T04:56:39.828Z,38.43
2017-08-17T04:59:15.060Z,35.67
2017-08-17T05:01:43.376Z,41.00
2017-08-17T05:04:11.969Z,36.40
2017-08-17T05:06:40.247Z,40.40
2017-08-17T05:09:10.118Z,39.03
2017-08-17T05:11:39.038Z,36.17
2017-08-17T05:14:07.373Z,40.17
2017-08-17T05:19:16.089Z,35.43
2017-08-17T05:21:44.366Z,40.27
2017-08-17T05:24:12.763Z,38.30
2017-08-17T05:26:41.511Z,39.53
2017-08-17T05:29:10.257Z,36.53
2017-08-17T05:31:39.666Z,37.37
2017-08-17T05:34:08.741Z,40.33
2017-08-17T05:36:37.049Z,37.13
2017-08-17T05:39:06.430Z,36.10
2017-08-17T05:41:34.718Z,37.13
2017-08-17T05:44:03.016Z,32.90
2017-08-17T05:46:32.088Z,32.67
2017-08-17T05:49:00.407Z,30.30
2017-08-17T05:51:29.063Z,30.40
2017-08-17T05:53:57.373Z,31.97
2017-08-17T05:56:26.414Z,29.97
2017-08-17T05:58:54.740Z,31.07
2017-08-17T06:01:23.040Z,31.70
2017-08-17T06:03:52.723Z,29.07
2017-08-17T06:06:21.941Z,30.60
2017-08-17T06:08:51.504Z,27.10
2017-08-17T06:11:21.508Z,25.60
2017-08-17T06:13:49.809Z,25.40
2017-08-17T06:16:18.420Z,26.80
2017-08-17T06:18:46.755Z,22.40
2017-08-17T06:21:16.033Z,23.13
2017-08-17T06:23:46.239Z,23.13
2017-08-17T06:26:14.534Z,20.50
2017-08-17T06:28:43.130Z,23.80
2017-08-17T06:31:12.220Z,20.73
2017-08-17T06:33:40.862Z,18.97
2017-08-17T06:36:09.642Z,19.70
2017-08-17T06:38:39.483Z,19.83
2017-08-17T06:41:07.783Z,17.97
2017-08-17T06:43:36.112Z,18.80
2017-08-17T06:46:04.420Z,16.30
2017-08-17T06:48:32.991Z,18.23
2017-08-17T06:51:01.319Z,18.20
2017-08-17T06:53:29.590Z,15.63
2017-08-17T06:55:59.127Z,15.07
2017-08-17T06:58:28.794Z,14.10
2017-08-17T07:00:57.100Z,15.87
2017-08-17T07:03:25.674Z,14.70
2017-08-17T07:05:53.971Z,14.10
2017-08-17T07:08:22.276Z,14.40
2017-08-17T07:10:50.621Z,14.50
2017-08-17T07:13:19.031Z,14.23
2017-08-17T07:15:47.608Z,14.07
2017-08-17T07:18:15.915Z,14.73
2017-08-17T07:20:44.288Z,14.00
2017-08-17T07:23:12.605Z,14.57
2017-08-17T07:25:41.656Z,13.60
2017-08-17T07:28:11.695Z,14.40
2017-08-17T07:30:41.222Z,15.57
2017-08-17T07:33:10.760Z,13.50
2017-08-17T07:35:40.310Z,13.60
2017-08-17T07:38:09.814Z,13.63
2017-08-17T07:40:40.482Z,13.43
2017-08-17T07:43:10.011Z,12.00
2017-08-17T07:45:39.550Z,11.50
2017-08-17T07:48:09.504Z,11.60
2017-08-17T07:50:39.005Z,10.53
2017-08-17T07:53:08.548Z,11.07
2017-08-17T07:55:38.346Z,10.70
2017-08-17T07:58:07.856Z,11.10
2017-08-17T08:00:37.487Z,11.30
2017-08-17T08:03:07.317Z,10.67
2017-08-17T08:05:36.821Z,10.57
2017-08-17T08:08:06.370Z,10.87
2017-08-17T08:10:36.211Z,11.57
2017-08-17T08:13:05.711Z,9.87
2017-08-17T08:15:36.365Z,11.20
2017-08-17T08:18:05.969Z,10.40
2017-08-17T08:20:35.485Z,9.53
2017-08-17T08:23:03.950Z,11.30
2017-08-17T08:25:32.245Z,11.70
2017-08-17T08:28:01.610Z,8.00
2017-08-17T08:30:30.981Z,8.87
2017-08-17T08:32:59.643Z,9.23
2017-08-17T08:35:28.777Z,7.90
2017-08-17T08:37:58.197Z,8.33
2017-08-17T08:40:27.269Z,7.60
2017-08-17T08:42:55.598Z,8.23
2017-08-17T08:45:24.211Z,7.43
2017-08-17T08:47:52.483Z,8.23
2017-08-17T08:50:20.803Z,9.27
2017-08-17T08:52:49.169Z,8.30
2017-08-17T08:55:17.481Z,7.80
2017-08-17T08:57:46.152Z,8.77
2017-08-17T09:00:14.443Z,7.70
2017-08-17T09:02:43.106Z,7.77
2017-08-17T09:05:11.811Z,7.97
2017-08-17T09:07:40.130Z,7.47
2017-08-17T09:10:10.393Z,6.83
2017-08-17T09:12:39.769Z,7.37
2017-08-17T09:15:08.400Z,7.20
2017-08-17T09:17:36.978Z,7.63
2017-08-17T09:20:05.267Z,6.77
2017-08-17T09:22:34.709Z,5.90
2017-08-17T09:25:03.111Z,7.10
2017-08-17T09:27:32.464Z,6.17
2017-08-17T09:30:01.035Z,7.17
2017-08-17T09:32:30.000Z,7.97
2017-08-17T09:34:59.624Z,7.20
2017-08-17T09:37:28.384Z,6.63
2017-08-17T09:39:56.739Z,6.20
2017-08-17T09:42:27.201Z,6.53
2017-08-17T09:44:57.940Z,6.00
2017-08-17T09:47:26.198Z,5.77
2017-08-17T09:49:56.024Z,5.57
2017-08-17T09:52:26.200Z,4.80
2017-08-17T09:54:54.508Z,7.30
2017-08-17T09:57:23.541Z,6.00
2017-08-17T10:02:29.661Z,5.70
2017-08-17T10:04:57.971Z,6.23
2017-08-17T10:07:26.276Z,6.50
2017-08-17T10:09:54.849Z,6.27
2017-08-17T10:12:23.164Z,6.20
2017-08-17T10:14:52.220Z,6.00
2017-08-17T10:17:20.615Z,5.53
2017-08-17T10:19:49.128Z,5.50
2017-08-17T10:22:18.520Z,6.10
2017-08-17T10:24:46.798Z,5.20
2017-08-17T10:27:15.096Z,5.87
2017-08-17T10:29:46.158Z,5.60
2017-08-17T10:32:15.237Z,5.57
2017-08-17T10:34:43.520Z,5.37
2017-08-17T10:37:11.841Z,5.30
2017-08-17T10:39:40.108Z,4.83
2017-08-17T10:42:08.752Z,5.23
2017-08-17T10:44:37.058Z,5.20
2017-08-17T10:47:05.353Z,6.20
2017-08-17T10:49:34.441Z,4.43
2017-08-17T10:52:04.815Z,5.00
2017-08-17T10:54:33.459Z,4.87
2017-08-17T10:57:02.420Z,3.83
2017-08-17T10:59:31.214Z,5.17
2017-08-17T11:01:59.812Z,4.90
2017-08-17T11:04:28.138Z,5.00
2017-08-17T11:06:57.780Z,4.50
2017-08-17T11:09:26.302Z,4.93
2017-08-17T11:11:54.646Z,4.23
2017-08-17T11:14:23.942Z,5.17
2017-08-17T11:16:52.610Z,6.63
2017-08-17T11:19:21.745Z,5.07
2017-08-17T11:21:50.030Z,5.07
2017-08-17T11:24:18.662Z,4.67
2017-08-17T11:26:46.910Z,5.67
2017-08-17T11:29:15.268Z,5.40
2017-08-17T11:31:44.584Z,5.70
2017-08-17T11:34:12.885Z,4.43
2017-08-17T11:36:43.036Z,4.50
2017-08-17T11:39:12.137Z,4.63
2017-08-17T11:41:41.157Z,3.97
2017-08-17T11:44:09.518Z,4.60
2017-08-17T11:46:37.833Z,4.47
2017-08-17T11:49:07.153Z,4.27
2017-08-17T11:51:36.584Z,4.20
2017-08-17T11:54:05.306Z,3.70
2017-08-17T11:57:06.999Z,4.43
2017-08-17T11:59:36.894Z,3.70
2017-08-17T12:02:06.270Z,4.03
2017-08-17T12:04:36.415Z,4.70
2017-08-17T12:07:05.578Z,3.93
2017-08-17T12:09:34.177Z,3.77
2017-08-17T12:12:02.514Z,4.27
2017-08-17T12:14:30.806Z,4.20
2017-08-17T12:17:00.528Z,4.10
2017-08-17T12:19:28.805Z,4.20
2017-08-17T12:21:57.148Z,4.50
2017-08-17T12:24:25.725Z,5.47
2017-08-17T12:26:54.174Z,4.83
2017-08-17T12:29:23.903Z,4.97
2017-08-17T12:31:52.214Z,5.23
2017-08-17T12:34:21.879Z,4.60
2017-08-17T12:36:50.279Z,4.40
2017-08-17T12:39:18.586Z,5.67
2017-08-17T12:41:47.167Z,5.53
2017-08-17T12:44:16.354Z,5.50
2017-08-17T12:46:44.643Z,4.57
2017-08-17T12:49:13.332Z,5.30
2017-08-17T12:51:41.624Z,4.90
2017-08-17T12:54:09.940Z,5.17
2017-08-17T12:56:39.404Z,5.60
2017-08-17T12:59:08.732Z,5.03
2017-08-17T13:01:38.122Z,5.50
2017-08-17T13:04:06.498Z,4.73
2017-08-17T13:06:35.941Z,4.63
2017-08-17T13:09:05.321Z,4.43
2017-08-17T13:11:33.673Z,4.87
2017-08-17T13:14:03.487Z,5.43
2017-08-17T13:16:31.795Z,4.87
2017-08-17T13:19:00.586Z,5.00
2017-08-17T13:21:29.281Z,5.00
2017-08-17T13:23:57.606Z,5.00
2017-08-17T13:26:26.044Z,4.80
2017-08-17T13:28:55.252Z,5.13
2017-08-17T13:31:23.596Z,4.83
2017-08-17T13:33:52.731Z,4.70
2017-08-17T13:36:21.091Z,4.20
2017-08-17T13:38:49.729Z,4.00
2017-08-17T13:41:18.049Z,4.70
2017-08-17T13:43:46.676Z,5.60
2017-08-17T13:46:15.383Z,5.07
2017-08-17T13:48:44.984Z,5.97
2017-08-17T13:51:14.815Z,4.90
2017-08-17T13:53:44.781Z,4.57
2017-08-17T13:56:13.056Z,5.07
2017-08-17T13:58:41.652Z,5.40
2017-08-17T14:01:09.967Z,5.20
2017-08-17T14:03:39.175Z,6.90
2017-08-17T14:06:07.758Z,5.50
2017-08-17T14:08:36.359Z,5.33
2017-08-17T14:11:05.143Z,5.10
2017-08-17T14:13:34.567Z,4.80
2017-08-17T14:16:02.876Z,5.10
2017-08-17T14:18:31.949Z,5.60
2017-08-17T14:21:01.129Z,5.50
2017-08-17T14:23:29.810Z,5.00
2017-08-17T14:25:58.099Z,4.57
2017-08-17T14:28:26.478Z,5.57
2017-08-17T14:30:54.776Z,4.93
2017-08-17T14:33:23.868Z,4.70
2017-08-17T14:35:52.432Z,4.50
2017-08-17T14:38:20.845Z,4.03
2017-08-17T14:40:49.854Z,4.40
2017-08-17T14:43:18.177Z,4.37
2017-08-17T14:45:46.512Z,4.27
2017-08-17T14:48:15.203Z,4.40
2017-08-17T14:50:44.826Z,4.70
2017-08-17T14:53:14.371Z,4.43
2017-08-17T14:55:43.976Z,4.13
2017-08-17T14:58:13.458Z,4.60
2017-08-17T15:00:43.263Z,4.70
2017-08-17T15:03:11.419Z,4.57
2017-08-17T15:05:40.436Z,4.40
2017-08-17T15:08:08.772Z,4.90
2017-08-17T15:10:37.586Z,4.80
2017-08-17T15:13:06.230Z,4.80
2017-08-17T15:15:34.723Z,4.93
2017-08-17T15:18:03.075Z,5.00
2017-08-17T15:20:31.405Z,4.47
2017-08-17T15:22:59.742Z,4.30
2017-08-17T15:25:28.444Z,4.63
2017-08-17T15:27:57.137Z,5.23
2017-08-17T15:30:25.470Z,5.50
2017-08-17T15:32:54.220Z,4.60
2017-08-17T15:35:23.328Z,5.53
2017-08-17T15:37:53.380Z,6.00
2017-08-17T15:40:21.696Z,5.07
2017-08-17T15:42:50.059Z,5.60
2017-08-17T15:45:19.256Z,5.50
2017-08-17T15:47:47.541Z,4.70
2017-08-17T15:50:16.736Z,4.90
2017-08-17T15:52:45.031Z,5.00
2017-08-17T15:55:13.422Z,4.90
2017-08-17T15:57:41.830Z,4.40
2017-08-17T16:00:10.127Z,5.10
2017-08-17T16:02:38.796Z,4.23
2017-08-17T16:05:08.564Z,5.03
2017-08-17T16:07:37.381Z,4.97
2017-08-17T16:10:05.708Z,5.13
2017-08-17T16:12:34.002Z,5.30
2017-08-17T16:15:02.629Z,4.77
2017-08-17T16:17:31.015Z,5.27
2017-08-17T16:19:59.560Z,5.17
2017-08-17T16:22:27.853Z,5.10
2017-08-17T16:24:56.148Z,4.70
2017-08-17T16:27:24.750Z,4.57
2017-08-17T16:29:53.198Z,5.20
2017-08-17T16:32:21.513Z,5.43
2017-08-17T16:34:49.878Z,5.53
2017-08-17T16:37:18.184Z,5.30
2017-08-17T16:39:46.774Z,5.53
2017-08-17T16:42:15.944Z,5.83
2017-08-17T16:44:44.230Z,5.73
2017-08-17T16:47:12.542Z,5.10
2017-08-17T16:49:40.830Z,4.83
2017-08-17T16:52:09.504Z,4.60
2017-08-17T16:54:38.624Z,5.30
2017-08-17T16:57:07.105Z,6.00
2017-08-17T16:59:35.685Z,4.60
2017-08-17T17:02:04.483Z,4.40
2017-08-17T17:04:33.377Z,5.57
2017-08-17T17:07:01.707Z,4.90
2017-08-17T17:09:30.754Z,5.23
2017-08-17T17:11:59.465Z,4.80
2017-08-17T17:14:27.757Z,5.93
2017-08-17T17:16:56.835Z,5.20
2017-08-17T17:19:25.146Z,6.93
2017-08-17T17:21:54.190Z,5.00
2017-08-17T17:24:22.827Z,5.57
2017-08-17T17:26:51.890Z,5.40
2017-08-17T17:29:20.187Z,5.20
2017-08-17T17:31:48.486Z,5.33
2017-08-17T17:34:18.182Z,6.67
2017-08-17T17:36:46.780Z,5.70
2017-08-17T17:39:15.814Z,5.07
2017-08-17T17:41:44.140Z,5.87
2017-08-17T17:44:12.483Z,5.77
2017-08-17T17:46:40.820Z,5.97
2017-08-17T17:49:09.421Z,6.30
2017-08-17T17:51:37.707Z,6.00
2017-08-17T17:54:06.795Z,5.93
2017-08-17T17:56:35.088Z,6.10
2017-08-17T17:59:04.203Z,5.30
2017-08-17T18:01:33.498Z,5.33
2017-08-17T18:04:02.193Z,5.23
2017-08-17T18:06:31.394Z,5.97
2017-08-17T18:09:00.742Z,5.73
2017-08-17T18:11:29.053Z,6.70
2017-08-17T18:13:57.356Z,6.20
2017-08-17T18:16:26.466Z,5.53
2017-08-17T18:18:55.544Z,5.83
2017-08-17T18:21:24.136Z,6.87
2017-08-17T18:23:52.508Z,6.93
2017-08-17T18:26:21.510Z,6.60
2017-08-17T18:28:49.846Z,6.50
2017-08-17T18:31:18.134Z,6.60
2017-08-17T18:33:46.965Z,6.53
2017-08-17T18:36:15.251Z,7.57
2017-08-17T18:38:44.695Z,7.73
2017-08-17T18:41:14.682Z,11.20
2017-08-17T18:43:44.005Z,10.50
2017-08-17T18:46:13.085Z,11.37
2017-08-17T18:48:43.002Z,12.57
2017-08-17T18:51:11.300Z,13.40
2017-08-17T18:53:40.672Z,13.30
2017-08-17T18:56:09.109Z,14.97
2017-08-17T18:58:37.397Z,15.43
2017-08-17T19:01:05.700Z,16.00
2017-08-17T19:03:33.991Z,19.30
2017-08-17T19:06:02.356Z,18.67
2017-08-17T19:08:30.669Z,20.93
2017-08-17T19:10:59.997Z,24.60
2017-08-17T19:13:28.672Z,23.77
2017-08-17T19:15:57.139Z,20.90
2017-08-17T19:18:25.442Z,25.77
2017-08-17T19:20:55.803Z,26.80
2017-08-17T19:23:24.881Z,23.17
2017-08-17T19:25:53.219Z,25.13
2017-08-17T19:28:21.537Z,24.83
2017-08-17T19:30:49.838Z,26.30
2017-08-17T19:33:18.463Z,27.87
2017-08-17T19:35:46.796Z,29.87
2017-08-17T19:38:15.987Z,30.83
2017-08-17T19:40:44.389Z,30.13
2017-08-17T19:43:13.089Z,31.93
2017-08-17T19:45:41.732Z,29.37
2017-08-17T19:48:10.162Z,29.53
2017-08-17T19:50:39.216Z,34.43
2017-08-17T19:53:07.632Z,30.47
2017-08-17T19:55:35.934Z,30.83
2017-08-17T19:58:05.315Z,30.53
2017-08-17T20:00:34.520Z,29.60
2017-08-17T20:03:03.638Z,33.07
2017-08-17T20:05:32.734Z,34.00
2017-08-17T20:08:01.810Z,31.00
2017-08-17T20:10:30.403Z,31.10
2017-08-17T20:12:58.816Z,31.77
2017-08-17T20:15:27.904Z,27.90
2017-08-17T20:17:57.002Z,28.10
2017-08-17T20:20:26.097Z,27.40
2017-08-17T20:22:54.770Z,25.73
2017-08-17T20:25:23.876Z,27.50
2017-08-17T20:27:52.387Z,27.80
2017-08-17T20:30:21.491Z,28.50
2017-08-17T20:32:50.769Z,30.67
2017-08-17T20:35:19.669Z,33.23
2017-08-17T20:37:47.946Z,29.00
2017-08-17T20:40:17.280Z,30.43
2017-08-17T20:42:45.623Z,29.53
2017-08-17T20:45:13.930Z,32.40
2017-08-17T20:47:43.252Z,35.00
2017-08-17T20:50:11.567Z,33.47
2017-08-17T20:52:40.262Z,36.50
2017-08-17T20:55:09.205Z,34.43
2017-08-17T20:57:37.485Z,37.67
2017-08-17T21:00:06.892Z,35.57
2017-08-17T21:02:35.216Z,34.73
2017-08-17T21:05:03.514Z,35.20
2017-08-17T21:07:31.839Z,31.23
2017-08-17T21:10:00.966Z,30.30
2017-08-17T21:12:30.367Z,31.17
2017-08-17T21:14:59.433Z,26.40
2017-08-17T21:17:27.744Z,26.57
2017-08-17T21:19:56.100Z,27.20
2017-08-17T21:22:24.385Z,23.37
2017-08-17T21:24:53.059Z,19.37
2017-08-17T21:27:21.396Z,18.23
2017-08-17T21:29:49.748Z,18.43
2017-08-17T21:32:19.609Z,18.67
2017-08-17T21:34:47.883Z,16.80
2017-08-17T21:37:16.471Z,17.70
2017-08-17T21:39:44.763Z,16.63
2017-08-17T21:42:13.052Z,16.90
2017-08-17T21:44:41.472Z,16.03
2017-08-17T21:47:09.765Z,14.23
2017-08-17T21:49:39.166Z,12.43
2017-08-17T21:52:07.469Z,14.03
2017-08-17T21:54:35.797Z,16.10
2017-08-17T21:57:04.137Z,15.30
2017-08-17T21:59:32.448Z,17.07
2017-08-17T22:02:01.839Z,15.53
2017-08-17T22:04:30.140Z,16.87
2017-08-17T22:06:59.918Z,14.83
2017-08-17T22:09:28.241Z,15.40
2017-08-17T22:11:56.956Z,14.47
2017-08-17T22:14:26.040Z,13.47
2017-08-17T22:16:54.360Z,13.03
2017-08-17T22:19:23.493Z,12.07
2017-08-17T22:21:52.556Z,12.20
2017-08-17T22:24:21.642Z,13.07
2017-08-17T22:26:50.725Z,11.77
2017-08-17T22:29:19.036Z,10.80
2017-08-17T22:31:48.439Z,11.50
2017-08-17T22:34:16.754Z,12.10
2017-08-17T22:36:45.046Z,12.07
2017-08-17T22:39:13.708Z,11.97
2017-08-17T22:41:42.812Z,14.00
2017-08-17T22:44:11.887Z,11.53
2017-08-17T22:46:41.081Z,11.30
2017-08-17T22:49:10.004Z,12.77
2017-08-17T22:51:39.406Z,12.27
2017-08-17T22:54:07.691Z,12.80
2017-08-17T22:56:36.794Z,14.53
2017-08-17T22:59:05.084Z,12.10
2017-08-17T23:01:33.395Z,14.00
2017-08-17T23:04:03.238Z,14.33
2017-08-17T23:06:31.603Z,13.90
2017-08-17T23:09:00.228Z,12.60
2017-08-17T23:11:28.515Z,13.53
2017-08-17T23:13:57.603Z,15.37
2017-08-17T23:16:26.480Z,13.10
2017-08-17T23:18:55.617Z,13.40
2017-08-17T23:21:24.299Z,15.40
2017-08-17T23:23:52.606Z,15.60
2017-08-17T23:26:20.938Z,15.43
2017-08-17T23:28:49.299Z,14.97
2017-08-17T23:31:17.574Z,14.03
2017-08-17T23:33:46.209Z,14.70
2017-08-17T23:36:14.807Z,15.27
2017-08-17T23:38:43.512Z,17.33
2017-08-17T23:41:12.675Z,14.80
2017-08-17T23:43:40.999Z,15.90
2017-08-17T23:46:11.094Z,16.97
2017-08-17T23:48:39.422Z,16.53
2017-08-17T23:51:07.718Z,17.70
2017-08-17T23:53:37.631Z,15.27
2017-08-17T23:56:05.945Z,15.00
2017-08-17T23:58:34.689Z,16.87
